Time;durP1;ratioP1;P1;durP2;ratioP2;P2;SDS_P1;SDS_P2;PMS_P1;PMS_P2;Temp;Humidity;BMP_temperature;BMP_pressure;BME280_temperature;BME280_humidity;BME280_pressure;Samples;Min_cycle;Max_cycle;Signal;HPM_P1;HPM_P2
2022/06/03 02:48:00;;;;;;;6.50;3.15;;;16.40;99.90;;;;;;5294100;23;88902;-80
2022/06/03 02:50:34;;;;;;;7.15;3.45;;;16.30;99.90;;;;;;4919343;28;87183;-80
2022/06/03 02:53:37;;;;;;;4.80;2.63;;;16.30;99.90;;;;;;4923529;28;87728;-79
2022/06/03 02:56:09;;;;;;;5.43;2.58;;;16.30;99.90;;;;;;4924444;28;86670;-80
2022/06/03 02:58:50;;;;;;;5.15;2.38;;;16.20;99.90;;;;;;4923359;28;87231;-79
2022/06/03 03:01:43;;;;;;;4.30;2.35;;;16.20;99.90;;;;;;4921941;28;87522;-81
2022/06/03 03:04:12;;;;;;;4.35;2.60;;;16.20;99.90;;;;;;4922776;28;88079;-81
2022/06/03 03:07:13;;;;;;;4.50;2.80;;;16.10;99.90;;;;;;4926736;28;86615;-79
2022/06/03 03:09:53;;;;;;;3.70;2.47;;;16.10;99.90;;;;;;4924538;28;87074;-80
2022/06/03 03:12:41;;;;;;;4.47;2.47;;;15.90;99.90;;;;;;4914763;28;87864;-78
2022/06/03 03:15:19;;;;;;;5.60;2.67;;;15.90;99.90;;;;;;4917929;28;89045;-78
2022/06/03 03:18:15;;;;;;;5.07;2.50;;;15.90;99.90;;;;;;4902030;28;86834;-78
2022/06/03 03:21:12;;;;;;;3.63;2.30;;;15.80;99.90;;;;;;4911352;28;86854;-77
2022/06/03 03:23:49;;;;;;;5.82;3.15;;;15.80;99.90;;;;;;4915826;28;88549;-77
2022/06/03 03:26:15;;;;;;;4.55;2.45;;;15.80;99.90;;;;;;4918425;28;87404;-77
2022/06/03 03:28:49;;;;;;;6.13;3.08;;;15.80;99.90;;;;;;4916790;28;87159;-79
2022/06/03 03:31:56;;;;;;;6.00;3.40;;;15.70;99.90;;;;;;4914525;28;85603;-78
2022/06/03 03:34:59;;;;;;;8.90;3.20;;;15.60;99.90;;;;;;4894468;28;88797;-77
2022/06/03 03:37:43;;;;;;;7.78;2.95;;;15.60;99.90;;;;;;4915474;28;87033;-78
2022/06/03 03:40:33;;;;;;;6.60;3.45;;;15.60;99.90;;;;;;4915923;28;88019;-79
2022/06/03 03:43:07;;;;;;;7.32;2.95;;;15.60;99.90;;;;;;4921761;28;86914;-78
2022/06/03 03:45:51;;;;;;;4.78;2.88;;;15.60;99.90;;;;;;4927774;28;87163;-79
2022/06/03 03:48:29;;;;;;;5.90;3.13;;;15.70;99.90;;;;;;4925467;28;87117;-80
2022/06/03 03:51:14;;;;;;;5.18;2.50;;;15.80;99.90;;;;;;4925415;28;86925;-80
2022/06/03 03:53:51;;;;;;;7.18;3.22;;;16.00;99.90;;;;;;4930209;28;88162;-80
2022/06/03 03:56:49;;;;;;;8.20;3.72;;;16.00;99.90;;;;;;4917238;28;87004;-78
2022/06/03 03:59:46;;;;;;;5.10;3.30;;;16.00;99.90;;;;;;4914031;28;88085;-78
2022/06/03 04:02:24;;;;;;;6.20;3.45;;;16.00;99.90;;;;;;4906044;28;86957;-77
2022/06/03 04:04:58;;;;;;;7.00;2.90;;;16.20;99.90;;;;;;4915850;28;87192;-77
2022/06/03 04:07:51;;;;;;;5.80;3.42;;;16.30;99.90;;;;;;4915171;28;88705;-77
2022/06/03 04:11:01;;;;;;;15.23;3.05;;;16.40;99.90;;;;;;4914023;28;88543;-78
2022/06/03 04:13:47;;;;;;;7.15;2.88;;;16.60;99.90;;;;;;4909822;28;87011;-78
2022/06/03 04:16:25;;;;;;;3.50;2.25;;;16.80;99.90;;;;;;4919358;28;87649;-80
2022/06/03 04:19:00;;;;;;;6.18;2.90;;;17.00;99.90;;;;;;4918837;28;87223;-79
2022/06/03 04:21:53;;;;;;;7.35;2.88;;;17.20;99.90;;;;;;4920182;28;87069;-77
2022/06/03 04:24:19;;;;;;;8.35;2.50;;;17.40;99.90;;;;;;4915771;28;86934;-77
2022/06/03 04:27:02;;;;;;;5.75;2.67;;;17.70;99.90;;;;;;4918513;28;86479;-79
2022/06/03 04:30:05;;;;;;;4.57;2.28;;;18.00;99.90;;;;;;4916785;28;87080;-78
2022/06/03 04:32:58;;;;;;;6.03;2.25;;;18.30;99.90;;;;;;4916068;28;87330;-78
2022/06/03 04:36:00;;;;;;;4.32;2.65;;;18.70;99.90;;;;;;4914911;28;87832;-79
2022/06/03 04:38:28;;;;;;;5.93;2.60;;;19.90;99.90;;;;;;4918410;28;86917;-79
2022/06/03 04:41:22;;;;;;;5.72;2.33;;;20.60;96.90;;;;;;4917648;28;87156;-68
2022/06/03 04:44:12;;;;;;;6.53;2.83;;;21.00;94.40;;;;;;4912458;28;87201;-67
2022/06/03 04:46:53;;;;;;;5.60;2.55;;;21.20;91.40;;;;;;4916066;28;87038;-67
2022/06/03 04:49:56;;;;;;;5.18;2.85;;;21.20;91.30;;;;;;4914706;28;86875;-80
2022/06/03 04:52:22;;;;;;;6.18;3.10;;;20.70;90.80;;;;;;4918642;28;87504;-80
2022/06/03 04:54:59;;;;;;;7.82;3.25;;;19.90;92.70;;;;;;4919512;28;87410;-79
2022/06/03 04:57:41;;;;;;;6.90;3.00;;;19.40;94.30;;;;;;4917255;28;87001;-80
2022/06/03 05:00:42;;;;;;;8.02;3.17;;;18.80;96.10;;;;;;4919080;28;87449;-78
2022/06/03 05:03:32;;;;;;;6.55;3.47;;;18.30;99.80;;;;;;4912551;28;88179;-79
2022/06/03 05:06:26;;;;;;;8.45;3.50;;;18.30;99.90;;;;;;4922872;28;89378;-79
2022/06/03 05:09:16;;;;;;;7.25;2.95;;;18.60;99.90;;;;;;4920922;28;87427;-79
2022/06/03 05:12:01;;;;;;;7.78;2.95;;;19.00;99.20;;;;;;4922872;28;87355;-80
2022/06/03 05:14:58;;;;;;;6.85;3.08;;;19.10;98.90;;;;;;4924199;28;87000;-79
2022/06/03 05:17:57;;;;;;;7.32;2.47;;;19.30;97.30;;;;;;4919230;28;87235;-78
2022/06/03 05:20:35;;;;;;;7.45;3.10;;;20.10;95.40;;;;;;4924792;28;86681;-79
2022/06/03 05:23:12;;;;;;;6.13;2.22;;;20.20;93.30;;;;;;4919439;28;86776;-78
2022/06/03 05:25:41;;;;;;;6.03;2.45;;;19.80;93.70;;;;;;4919394;28;87191;-79
2022/06/03 05:28:19;;;;;;;6.57;2.33;;;19.20;95.40;;;;;;4917451;28;86859;-80
2022/06/03 05:31:28;;;;;;;8.00;2.78;;;19.10;96.30;;;;;;4916975;28;87841;-80
2022/06/03 05:34:12;;;;;;;7.18;2.13;;;19.00;97.00;;;;;;4918231;28;87086;-80
2022/06/03 05:37:08;;;;;;;8.27;2.17;;;20.10;94.60;;;;;;4924280;28;87063;-79
2022/06/03 05:39:34;;;;;;;7.60;2.92;;;20.90;91.40;;;;;;4906524;28;88571;-79
2022/06/03 05:44:56;;;;;;;3.83;1.77;;;24.10;78.40;;;;;;4920794;28;87300;-80
2022/06/03 05:47:31;;;;;;;4.88;1.58;;;25.90;70.30;;;;;;4922580;28;87455;-80
2022/06/03 05:50:26;;;;;;;10.05;1.92;;;27.40;62.90;;;;;;4918069;28;87247;-79
2022/06/03 05:53:07;;;;;;;12.23;2.42;;;27.00;61.60;;;;;;4926395;28;87096;-80
2022/06/03 05:56:03;;;;;;;4.28;1.98;;;26.30;64.00;;;;;;4929396;28;86980;-80
2022/06/03 05:58:56;;;;;;;7.32;2.25;;;26.50;65.00;;;;;;4922318;28;88858;-80
2022/06/03 06:01:28;;;;;;;4.70;1.83;;;27.90;60.10;;;;;;4923986;28;89924;-80
2022/06/03 06:04:15;;;;;;;7.57;2.13;;;29.40;58.80;;;;;;4922544;28;87028;-80
2022/06/03 06:07:02;;;;;;;5.72;2.22;;;31.10;54.70;;;;;;4926140;28;86992;-79
2022/06/03 06:09:49;;;;;;;4.80;2.72;;;32.80;53.80;;;;;;4918382;28;87821;-80
2022/06/03 06:12:39;;;;;;;3.88;2.90;;;33.20;50.90;;;;;;4916955;28;87053;-81
2022/06/03 06:15:29;;;;;;;4.72;3.55;;;33.40;50.50;;;;;;4921017;28;87387;-77
2022/06/03 06:18:13;;;;;;;6.38;3.13;;;34.30;49.90;;;;;;4922011;28;86244;-80
2022/06/03 06:20:50;;;;;;;4.07;3.20;;;33.80;48.80;;;;;;4923396;28;87304;-80
2022/06/03 06:23:21;;;;;;;7.85;2.85;;;32.10;51.30;;;;;;4927265;28;86925;-79
2022/06/03 06:26:11;;;;;;;5.57;3.53;;;30.40;54.50;;;;;;4920741;28;87673;-79
2022/06/03 06:29:00;;;;;;;4.65;3.05;;;29.10;56.60;;;;;;4918438;28;87320;-80
2022/06/03 06:31:51;;;;;;;8.60;2.97;;;28.10;58.40;;;;;;4919943;28;87210;-80
2022/06/03 06:35:07;;;;;;;4.43;2.30;;;27.40;60.90;;;;;;4901802;28;87270;-80
2022/06/03 06:38:09;;;;;;;4.28;1.95;;;27.10;61.20;;;;;;4877375;28;86971;-79
2022/06/03 06:40:46;;;;;;;4.47;2.05;;;26.70;62.90;;;;;;4921276;28;86579;-80
2022/06/03 06:43:33;;;;;;;3.30;1.88;;;27.20;62.20;;;;;;4922968;28;88765;-78
2022/06/03 06:46:10;;;;;;;4.20;2.13;;;27.60;59.50;;;;;;4921586;28;86725;-79
2022/06/03 06:49:03;;;;;;;2.40;1.52;;;27.70;59.90;;;;;;4920109;28;87034;-80
2022/06/03 06:51:44;;;;;;;3.65;2.17;;;28.60;58.30;;;;;;4916003;28;87163;-80
2022/06/03 06:54:18;;;;;;;3.50;2.10;;;30.10;56.80;;;;;;4917091;28;88488;-80
2022/06/03 06:56:53;;;;;;;6.75;2.40;;;30.90;54.70;;;;;;4921465;28;88108;-79
2022/06/03 06:59:47;;;;;;;6.90;3.10;;;32.30;52.70;;;;;;4918261;28;87505;-80
2022/06/03 07:02:24;;;;;;;4.18;2.10;;;34.00;51.00;;;;;;4921142;28;86758;-79
2022/06/03 07:05:01;;;;;;;4.25;2.90;;;35.90;47.70;;;;;;4923391;28;87170;-80
2022/06/03 07:07:31;;;;;;;5.07;2.83;;;37.30;44.70;;;;;;4921702;28;87146;-80
2022/06/03 07:10:00;;;;;;;4.45;2.25;;;37.90;42.10;;;;;;4922663;28;86961;-80
2022/06/03 07:12:42;;;;;;;5.07;2.72;;;38.20;41.60;;;;;;4915472;28;86724;-80
2022/06/03 07:15:25;;;;;;;5.00;3.28;;;38.80;41.50;;;;;;4917561;28;87483;-79
2022/06/03 07:20:48;;;;;;;4.22;3.38;;;39.80;40.00;;;;;;4917009;28;88285;-80
2022/06/03 07:23:33;;;;;;;6.10;3.65;;;39.60;40.70;;;;;;4922820;28;87069;-80
2022/06/03 07:26:05;;;;;;;4.20;3.45;;;39.70;39.40;;;;;;4921539;28;87119;-80
2022/06/03 07:28:54;;;;;;;4.93;3.80;;;40.20;38.70;;;;;;4922373;28;86962;-80
2022/06/03 07:31:36;;;;;;;5.07;4.50;;;40.10;38.70;;;;;;4918304;28;87000;-80
2022/06/03 07:34:13;;;;;;;4.95;4.22;;;40.40;40.10;;;;;;4921720;28;87899;-80
2022/06/03 07:36:59;;;;;;;6.05;4.40;;;41.00;38.30;;;;;;4922947;28;87054;-80
2022/06/03 07:39:52;;;;;;;4.85;3.67;;;41.00;38.20;;;;;;4922952;28;87459;-81
2022/06/03 07:42:30;;;;;;;5.15;3.97;;;40.40;38.40;;;;;;4922617;28;87202;-80
2022/06/03 07:45:07;;;;;;;4.28;3.78;;;40.10;38.40;;;;;;4917209;28;87026;-80
2022/06/03 07:47:33;;;;;;;4.38;3.58;;;39.50;39.70;;;;;;4920759;28;88661;-79
2022/06/03 07:50:02;;;;;;;8.45;5.00;;;39.90;39.50;;;;;;4922461;28;86898;-80
2022/06/03 07:52:47;;;;;;;7.00;4.32;;;40.20;39.40;;;;;;4922404;28;87622;-80
2022/06/03 07:55:16;;;;;;;4.90;4.40;;;41.10;37.80;;;;;;4920239;28;87228;-78
2022/06/03 07:57:53;;;;;;;4.50;4.07;;;41.00;37.00;;;;;;4918215;28;87120;-77
2022/06/03 08:00:21;;;;;;;25.48;5.20;;;40.80;37.30;;;;;;4920266;28;87379;-80
2022/06/03 08:03:07;;;;;;;9.43;4.18;;;39.90;38.40;;;;;;4922637;28;87033;-81
2022/06/03 08:05:33;;;;;;;5.30;3.75;;;39.40;38.90;;;;;;4920678;28;85847;-80
2022/06/03 08:10:58;;;;;;;6.70;3.90;;;40.70;37.60;;;;;;4920479;28;87441;-80
2022/06/03 08:13:39;;;;;;;6.28;3.75;;;41.50;37.70;;;;;;4919830;28;87844;-78
2022/06/03 08:16:10;;;;;;;4.38;3.47;;;41.70;36.30;;;;;;4917405;28;87125;-80
2022/06/03 08:18:42;;;;;;;6.25;3.67;;;41.00;36.90;;;;;;4918062;28;87240;-80
2022/06/03 08:21:12;;;;;;;5.07;3.53;;;42.10;36.70;;;;;;4918447;28;87351;-78
2022/06/03 08:23:38;;;;;;;5.35;4.10;;;41.60;36.10;;;;;;4918561;28;87696;-78
2022/06/03 08:26:11;;;;;;;7.18;4.00;;;39.90;39.90;;;;;;4918532;28;87630;-79
2022/06/03 08:28:43;;;;;;;7.50;3.35;;;41.30;36.80;;;;;;4917925;28;88001;-77
2022/06/03 08:31:09;;;;;;;4.63;3.63;;;42.90;36.10;;;;;;4912219;28;86801;-79
2022/06/03 08:33:43;;;;;;;6.55;4.20;;;44.10;34.80;;;;;;4918844;28;87388;-78
2022/06/03 08:36:18;;;;;;;6.85;5.63;;;44.10;35.40;;;;;;4920928;28;87021;-78
2022/06/03 08:38:55;;;;;;;8.55;7.72;;;44.50;36.80;;;;;;4921299;28;87941;-79
2022/06/03 08:41:42;;;;;;;7.32;5.50;;;44.90;36.30;;;;;;4922998;28;87868;-79
2022/06/03 08:44:26;;;;;;;5.63;5.03;;;44.20;35.80;;;;;;4921608;28;87083;-79
2022/06/03 08:47:12;;;;;;;8.00;5.53;;;44.20;36.10;;;;;;4918676;28;87412;-78
2022/06/03 08:50:19;;;;;;;8.15;5.55;;;44.70;36.10;;;;;;4921356;28;87325;-79
2022/06/03 08:53:12;;;;;;;7.82;5.47;;;45.20;35.20;;;;;;4921843;28;87068;-78
2022/06/03 08:55:53;;;;;;;6.65;5.97;;;46.00;34.90;;;;;;4922089;28;87032;-78
2022/06/03 08:58:43;;;;;;;6.25;5.63;;;47.30;33.50;;;;;;4921842;28;86325;-78
2022/06/03 09:01:19;;;;;;;6.78;6.13;;;47.80;33.90;;;;;;4910532;28;88059;-78
2022/06/03 09:03:57;;;;;;;8.57;7.63;;;47.50;33.30;;;;;;4915571;28;86960;-78
2022/06/03 09:06:36;;;;;;;8.43;7.63;;;48.20;33.00;;;;;;4921716;28;87955;-78
2022/06/03 09:09:11;;;;;;;7.93;7.13;;;48.60;32.40;;;;;;4919761;28;87278;-78
2022/06/03 09:11:51;;;;;;;8.25;7.40;;;45.20;33.70;;;;;;4921082;28;87571;-79
2022/06/03 09:14:23;;;;;;;14.88;9.50;;;41.70;36.80;;;;;;4921853;28;87138;-78
2022/06/03 09:16:52;;;;;;;10.00;7.72;;;40.80;38.50;;;;;;4926235;28;87255;-77
2022/06/03 09:19:28;;;;;;;10.45;8.38;;;40.50;39.00;;;;;;4921911;28;87044;-79
2022/06/03 09:21:57;;;;;;;7.95;6.45;;;42.30;37.50;;;;;;4925557;28;88683;-80
2022/06/03 09:24:27;;;;;;;8.73;5.93;;;43.50;36.30;;;;;;4924141;28;87264;-78
2022/06/03 09:26:56;;;;;;;6.10;5.45;;;41.90;36.80;;;;;;4922347;28;87088;-78
2022/06/03 09:29:23;;;;;;;7.68;5.22;;;41.30;38.20;;;;;;4931841;28;87175;-79
2022/06/03 09:32:03;;;;;;;10.07;7.18;;;41.20;38.40;;;;;;4920641;28;88333;-78
2022/06/03 09:34:50;;;;;;;7.35;6.63;;;42.30;37.90;;;;;;4921700;28;88791;-79
2022/06/03 09:37:20;;;;;;;7.95;6.45;;;43.10;37.40;;;;;;4923575;28;88068;-78
2022/06/03 09:39:49;;;;;;;7.32;6.22;;;43.50;36.00;;;;;;4930758;28;87034;-80
2022/06/03 09:42:18;;;;;;;6.78;6.03;;;44.00;37.30;;;;;;4917721;28;88008;-76
2022/06/03 09:44:47;;;;;;;8.13;6.55;;;44.70;35.70;;;;;;4920388;28;87886;-77
2022/06/03 09:47:18;;;;;;;8.00;7.25;;;44.10;36.30;;;;;;4921317;28;87672;-77
2022/06/03 09:49:46;;;;;;;8.57;7.60;;;43.30;36.30;;;;;;4921512;28;86321;-79
2022/06/03 09:52:18;;;;;;;7.90;7.15;;;43.20;36.60;;;;;;4925653;28;88376;-79
2022/06/03 09:54:44;;;;;;;9.63;7.47;;;43.20;36.90;;;;;;4921927;28;87297;-78
2022/06/03 09:57:33;;;;;;;10.00;6.85;;;42.60;36.50;;;;;;4927431;28;88078;-79
2022/06/03 10:00:21;;;;;;;9.45;7.47;;;40.90;37.80;;;;;;4922363;28;86877;-79
2022/06/03 10:02:47;;;;;;;;;;;39.40;40.20;;;;;;4923920;28;87288;-78
2022/06/03 10:05:16;;;;;;;8.95;6.72;;;40.50;40.20;;;;;;4927064;28;87070;-78
2022/06/03 10:07:47;;;;;;;6.97;6.28;;;40.60;39.60;;;;;;4918859;28;87387;-79
2022/06/03 10:13:04;;;;;;;6.40;5.78;;;40.00;39.60;;;;;;4916254;28;88052;-80
2022/06/03 10:15:39;;;;;;;6.75;5.75;;;39.30;41.10;;;;;;4918992;28;87617;-80
2022/06/03 10:18:11;;;;;;;8.52;5.20;;;37.80;42.90;;;;;;4921452;28;86987;-80
2022/06/03 10:20:37;;;;;;;6.38;4.55;;;36.80;45.40;;;;;;4921616;28;86756;-80
2022/06/03 10:23:05;;;;;;;6.68;4.75;;;36.10;47.20;;;;;;4918751;28;89354;-79
2022/06/03 10:25:31;;;;;;;5.90;4.25;;;35.70;48.20;;;;;;4922678;28;89360;-79
2022/06/03 10:28:06;;;;;;;6.95;3.88;;;34.90;47.60;;;;;;4922912;28;87335;-78
2022/06/03 10:30:34;;;;;;;5.45;3.60;;;34.60;47.50;;;;;;4921712;28;87456;-79
2022/06/03 10:33:00;;;;;;;7.25;4.10;;;34.60;47.70;;;;;;4921961;28;87050;-79
2022/06/03 10:35:28;;;;;;;6.80;4.13;;;34.80;48.60;;;;;;4920611;28;87428;-80
2022/06/03 10:37:59;;;;;;;7.97;4.55;;;34.50;48.10;;;;;;4921985;28;86991;-80
2022/06/03 10:40:26;;;;;;;5.32;3.40;;;34.10;47.90;;;;;;4920521;28;87240;-79
2022/06/03 10:42:55;;;;;;;6.80;3.85;;;33.70;48.20;;;;;;4922320;28;87009;-80
2022/06/03 10:45:29;;;;;;;7.47;3.47;;;33.60;50.30;;;;;;4919144;28;87009;-77
2022/06/03 10:47:55;;;;;;;21.48;4.90;;;33.60;50.20;;;;;;4920781;28;88440;-80
2022/06/03 10:50:33;;;;;;;13.85;3.97;;;33.90;49.80;;;;;;4915219;28;89508;-79
2022/06/03 11:01:34;;;;;;;54.65;10.45;;;34.70;48.70;;;;;;4915753;28;87220;-79
2022/06/03 11:04:01;;;;;;;5.20;2.72;;;34.80;48.00;;;;;;4917177;28;89722;-79
2022/06/03 11:06:36;;;;;;;4.78;2.03;;;35.00;48.20;;;;;;4916981;28;86947;-79
2022/06/03 11:09:06;;;;;;;6.35;2.88;;;35.10;45.30;;;;;;4919064;28;87546;-79
2022/06/03 11:11:31;;;;;;;7.43;2.38;;;35.00;47.40;;;;;;4914461;28;86975;-79
2022/06/03 11:13:57;;;;;;;5.20;2.33;;;34.80;46.50;;;;;;4919965;28;88472;-80
2022/06/03 11:16:26;;;;;;;3.05;1.90;;;34.70;46.40;;;;;;4915638;28;87354;-79
2022/06/03 11:18:52;;;;;;;3.42;1.70;;;34.90;47.30;;;;;;4915240;28;87028;-77
2022/06/03 11:21:27;;;;;;;2.90;1.65;;;35.20;45.60;;;;;;4915996;28;87130;-78
2022/06/03 11:23:56;;;;;;;4.18;2.33;;;34.70;45.90;;;;;;4912744;28;87722;-79
2022/06/03 11:26:37;;;;;;;5.80;1.48;;;34.20;45.20;;;;;;4919651;28;86986;-79
2022/06/03 11:29:21;;;;;;;4.70;2.17;;;34.10;45.80;;;;;;4921113;28;86941;-79
2022/06/03 11:31:47;;;;;;;4.30;2.03;;;34.10;46.70;;;;;;4919857;28;86354;-80
2022/06/03 11:34:35;;;;;;;5.97;2.80;;;33.80;47.50;;;;;;4917899;28;87121;-79
2022/06/03 11:37:10;;;;;;;4.40;3.25;;;33.20;49.40;;;;;;4914630;28;87296;-78
2022/06/03 11:39:38;;;;;;;;;;;32.80;51.00;;;;;;4920089;28;88178;-78
2022/06/03 11:42:35;;;;;;;6.93;3.17;;;32.50;50.60;;;;;;4927824;28;86955;-80
2022/06/03 11:45:13;;;;;;;4.82;2.80;;;32.30;50.90;;;;;;4913384;28;87751;-79
2022/06/03 11:48:22;;;;;;;8.00;3.10;;;31.60;52.30;;;;;;4917331;28;87066;-78
2022/06/03 11:50:48;;;;;;;5.47;3.42;;;31.50;54.40;;;;;;4839475;29;87290;-77
2022/06/03 11:53:24;;;;;;;6.22;3.40;;;31.10;55.30;;;;;;4902873;28;87095;-79
2022/06/03 11:55:53;;;;;;;6.05;3.92;;;30.60;57.00;;;;;;4927780;28;87439;-79
2022/06/03 11:58:45;;;;;;;6.85;3.03;;;30.40;57.20;;;;;;4915189;28;87136;-81
2022/06/03 12:01:34;;;;;;;4.20;2.90;;;30.20;58.20;;;;;;4929429;28;87241;-79
2022/06/03 12:04:10;;;;;;;8.13;2.42;;;29.90;59.40;;;;;;4928832;28;87475;-80
2022/06/03 12:06:54;;;;;;;7.15;2.75;;;29.50;59.40;;;;;;4919759;28;91010;-80
2022/06/03 12:09:47;;;;;;;5.10;3.63;;;29.30;60.60;;;;;;4924811;28;88256;-79
2022/06/03 12:15:53;;;;;;;6.95;3.58;;;28.60;62.00;;;;;;4921810;28;87394;-79
2022/06/03 12:18:39;;;;;;;6.97;3.78;;;28.30;62.80;;;;;;4888248;28;87427;-61
2022/06/03 12:21:13;;;;;;;8.65;3.20;;;28.20;62.70;;;;;;4912835;28;89980;-60
2022/06/03 12:23:38;;;;;;;7.85;3.20;;;28.20;62.20;;;;;;4916643;28;86639;-61
2022/06/03 12:26:21;;;;;;;5.60;3.65;;;28.10;61.90;;;;;;4918130;28;86400;-61
2022/06/03 12:28:50;;;;;;;5.60;3.15;;;28.00;62.80;;;;;;4913974;28;87533;-61
2022/06/03 12:31:33;;;;;;;5.75;4.05;;;27.70;63.10;;;;;;4918359;28;88913;-59
2022/06/03 12:34:06;;;;;;;6.57;3.53;;;27.30;64.50;;;;;;4915660;28;88085;-63
2022/06/03 12:36:40;;;;;;;6.57;3.35;;;27.00;65.70;;;;;;4916683;28;87053;-61
2022/06/03 12:39:18;;;;;;;5.18;2.85;;;26.70;66.40;;;;;;4918261;28;88609;-61
2022/06/03 12:41:46;;;;;;;6.80;3.35;;;26.80;65.70;;;;;;4914365;28;87429;-60
2022/06/03 12:44:49;;;;;;;7.90;3.88;;;27.00;66.50;;;;;;4919498;28;87035;-60
2022/06/03 12:47:35;;;;;;;5.82;4.00;;;26.40;67.50;;;;;;4919406;28;86973;-58
2022/06/03 12:50:06;;;;;;;12.20;3.88;;;26.10;69.40;;;;;;4918261;28;87147;-60
2022/06/03 12:52:35;;;;;;;6.75;4.10;;;25.90;70.70;;;;;;4919347;28;88014;-60
2022/06/03 12:55:23;;;;;;;6.82;3.40;;;25.50;72.00;;;;;;4918793;28;87811;-61
2022/06/03 12:58:00;;;;;;;7.97;3.78;;;25.20;71.70;;;;;;4915232;28;87140;-58
2022/06/03 13:00:32;;;;;;;9.82;4.28;;;25.20;70.90;;;;;;4915298;28;88709;-60
2022/06/03 13:02:58;;;;;;;8.80;3.35;;;25.00;71.40;;;;;;4918667;28;89075;-61
2022/06/03 13:05:39;;;;;;;8.48;3.65;;;25.40;70.50;;;;;;4912124;28;88964;-60
2022/06/03 13:08:22;;;;;;;6.13;3.33;;;25.80;68.30;;;;;;4913957;28;87233;-61
2022/06/03 13:11:03;;;;;;;12.40;3.28;;;25.90;70.00;;;;;;4906225;28;87461;-59
2022/06/03 13:13:34;;;;;;;11.55;3.83;;;25.70;69.00;;;;;;4915916;28;87334;-60
2022/06/03 13:16:03;;;;;;;10.73;3.83;;;25.30;70.30;;;;;;4918081;28;87783;-59
2022/06/03 13:18:38;;;;;;;5.72;3.25;;;25.10;70.90;;;;;;4915630;28;86142;-59
2022/06/03 13:21:03;;;;;;;6.90;3.20;;;24.70;72.00;;;;;;4917517;28;88715;-61
2022/06/03 13:23:29;;;;;;;7.03;3.22;;;24.60;73.10;;;;;;4914712;28;87867;-60
2022/06/03 13:26:16;;;;;;;5.63;3.15;;;24.50;73.70;;;;;;4916599;28;88497;-61
2022/06/03 13:28:43;;;;;;;4.72;2.92;;;24.60;73.90;;;;;;4872452;28;87408;-60
2022/06/03 13:31:30;;;;;;;4.63;2.85;;;24.90;73.80;;;;;;4914642;28;88378;-59
2022/06/03 13:34:02;;;;;;;7.68;2.83;;;25.00;72.70;;;;;;4914812;28;88377;-58
2022/06/03 13:36:37;;;;;;;5.75;2.75;;;25.10;72.00;;;;;;4921543;28;87152;-60
2022/06/03 13:39:04;;;;;;;7.20;3.13;;;25.20;71.60;;;;;;4913795;28;87223;-56
2022/06/03 13:44:46;;;;;;;7.95;3.72;;;24.50;74.70;;;;;;4923151;28;86229;-58
2022/06/03 13:47:15;;;;;;;10.38;4.15;;;24.30;75.80;;;;;;4914656;28;87177;-78
2022/06/03 13:49:51;;;;;;;12.35;3.63;;;24.20;75.80;;;;;;4915801;28;87513;-79
2022/06/03 13:52:26;;;;;;;11.40;3.45;;;24.10;76.70;;;;;;4911835;28;88919;-79
2022/06/03 13:55:20;;;;;;;6.03;3.20;;;24.10;77.40;;;;;;4896347;28;89692;-79
2022/06/03 13:57:56;;;;;;;5.00;0.90;;;24.40;75.20;;;;;;4921829;28;87518;-79
2022/06/03 14:00:35;;;;;;;4.53;0.80;;;24.40;66.10;;;;;;4919680;28;87030;-78
2022/06/03 14:03:12;;;;;;;3.50;0.80;;;24.60;64.20;;;;;;4919298;28;86784;-79
2022/06/03 14:06:01;;;;;;;2.63;0.73;;;24.70;64.40;;;;;;4915749;28;87612;-78
2022/06/03 14:08:26;;;;;;;9.45;0.60;;;24.70;63.10;;;;;;4914380;28;86930;-78
2022/06/03 14:11:04;;;;;;;9.48;0.68;;;24.60;61.60;;;;;;4916452;28;86456;-79
2022/06/03 14:13:53;;;;;;;7.28;1.05;;;24.50;62.80;;;;;;4917598;28;87583;-79
2022/06/03 14:16:30;;;;;;;8.48;0.82;;;24.40;62.60;;;;;;4916280;28;87701;-79
2022/06/03 14:19:27;;;;;;;3.53;0.63;;;24.30;62.00;;;;;;4915653;28;87972;-79
2022/06/03 14:21:54;;;;;;;4.85;0.73;;;24.30;61.10;;;;;;4922358;28;87634;-79
2022/06/03 14:24:37;;;;;;;4.75;0.50;;;24.20;61.00;;;;;;4918471;28;88249;-80
2022/06/03 14:27:26;;;;;;;3.83;0.60;;;24.20;61.40;;;;;;4922058;28;88253;-79
2022/06/03 14:30:17;;;;;;;4.32;0.50;;;24.10;62.90;;;;;;4917043;28;87043;-79
2022/06/03 14:32:51;;;;;;;3.55;0.30;;;23.90;64.00;;;;;;4899905;28;86750;-80
2022/06/03 14:35:33;;;;;;;1.60;0.52;;;23.80;64.90;;;;;;4918057;28;87052;-79
2022/06/03 14:37:59;;;;;;;;;;;23.60;65.90;;;;;;4921559;28;86240;-79
2022/06/03 14:40:32;;;;;;;5.90;1.33;;;23.60;65.70;;;;;;4924071;28;86885;-80
2022/06/03 14:43:00;;;;;;;2.80;1.33;;;23.40;72.90;;;;;;4917749;28;87214;-78
2022/06/03 14:45:33;;;;;;;15.45;2.15;;;23.10;76.50;;;;;;4910507;28;88574;-64
2022/06/03 14:48:00;;;;;;;7.03;1.85;;;23.00;78.60;;;;;;4913665;28;88338;-64
2022/06/03 14:50:35;;;;;;;11.25;2.28;;;23.50;77.10;;;;;;4910769;28;87131;-64
2022/06/03 14:53:00;;;;;;;5.85;1.67;;;23.50;76.20;;;;;;4909794;28;86990;-62
2022/06/03 14:55:35;;;;;;;3.70;0.90;;;23.50;75.20;;;;;;4914206;28;88638;-64
2022/06/03 14:58:16;;;;;;;5.40;0.90;;;23.30;74.90;;;;;;4918942;28;87474;-65
2022/06/03 15:01:03;;;;;;;3.58;1.15;;;23.30;74.40;;;;;;4918093;28;87532;-63
2022/06/03 15:03:50;;;;;;;2.35;0.80;;;23.30;74.30;;;;;;4917382;28;86190;-63
2022/06/03 15:06:45;;;;;;;2.67;0.90;;;23.20;73.90;;;;;;4913999;28;87157;-65
2022/06/03 15:09:40;;;;;;;4.25;0.82;;;23.10;73.80;;;;;;4863662;28;87502;-63
2022/06/03 15:12:20;;;;;;;1.88;0.70;;;22.90;73.20;;;;;;4907280;28;87962;-63
2022/06/03 15:14:46;;;;;;;1.20;0.38;;;22.90;73.00;;;;;;4918371;28;87094;-62
2022/06/03 15:17:14;;;;;;;1.45;0.40;;;22.70;72.90;;;;;;4900171;28;88298;-63
2022/06/03 15:19:44;;;;;;;2.75;0.65;;;22.60;73.80;;;;;;4912766;28;89042;-63
2022/06/03 15:22:33;;;;;;;1.55;0.60;;;22.50;76.30;;;;;;4913864;28;87035;-65
2022/06/03 15:25:20;;;;;;;1.65;0.40;;;22.10;77.20;;;;;;4912980;28;87136;-64
2022/06/03 15:27:48;;;;;;;2.47;0.85;;;22.20;78.00;;;;;;4917155;28;86965;-64
2022/06/03 15:30:26;;;;;;;2.28;0.40;;;22.30;77.30;;;;;;4917277;28;88082;-63
2022/06/03 15:32:53;;;;;;;3.08;0.73;;;22.30;76.30;;;;;;4917227;28;86944;-64
2022/06/03 15:35:31;;;;;;;2.28;0.50;;;22.20;76.50;;;;;;4917397;28;87147;-64
2022/06/03 15:38:02;;;;;;;2.70;0.57;;;22.10;77.60;;;;;;4916914;28;88061;-64
2022/06/03 15:40:31;;;;;;;5.85;0.63;;;21.80;80.60;;;;;;4917869;28;87357;-64
2022/06/03 15:42:59;;;;;;;3.95;0.50;;;21.50;85.30;;;;;;4915821;28;87319;-60
2022/06/03 15:45:34;;;;;;;4.90;1.00;;;21.20;81.40;;;;;;4917795;28;87086;-64
2022/06/03 15:48:04;;;;;;;2.20;0.55;;;21.40;84.30;;;;;;4916354;28;88831;-62
2022/06/03 15:50:29;;;;;;;5.70;0.70;;;21.70;86.00;;;;;;4916454;28;86968;-67
2022/06/03 15:52:56;;;;;;;2.80;0.60;;;22.10;88.20;;;;;;4912657;28;87546;-65
2022/06/03 15:55:34;;;;;;;6.05;0.50;;;22.20;84.00;;;;;;4913460;28;86425;-64
2022/06/03 15:58:20;;;;;;;3.42;0.57;;;22.00;84.00;;;;;;4911272;28;87835;-64
2022/06/03 16:00:55;;;;;;;2.67;0.70;;;21.80;85.40;;;;;;4913302;28;87135;-63
2022/06/03 16:03:36;;;;;;;2.53;0.63;;;21.60;86.60;;;;;;4915560;28;89807;-62
2022/06/03 16:06:07;;;;;;;2.40;0.47;;;21.70;87.50;;;;;;4911616;28;87415;-62
2022/06/03 16:08:54;;;;;;;2.92;0.52;;;21.90;86.80;;;;;;4916553;28;89660;-60
2022/06/03 16:11:23;;;;;;;4.57;0.90;;;22.00;85.00;;;;;;4916645;28;86664;-65
2022/06/03 16:14:25;;;;;;;3.03;0.60;;;22.10;87.10;;;;;;4916093;28;87074;-64
2022/06/03 16:17:08;;;;;;;2.90;0.50;;;22.00;85.90;;;;;;4917150;28;87205;-61
2022/06/03 16:19:50;;;;;;;4.68;0.90;;;21.90;88.60;;;;;;4913932;28;86958;-66
2022/06/03 16:22:37;;;;;;;2.90;0.68;;;21.80;89.30;;;;;;4915410;28;88506;-66
2022/06/03 16:25:18;;;;;;;3.22;1.30;;;21.90;88.70;;;;;;4913213;28;87001;-61
2022/06/03 16:27:55;;;;;;;4.50;0.90;;;21.90;90.10;;;;;;4916789;28;87465;-63
2022/06/03 16:30:55;;;;;;;3.63;0.75;;;21.80;90.70;;;;;;4915237;28;89708;-62
2022/06/03 16:33:58;;;;;;;3.90;1.27;;;21.80;90.90;;;;;;4915527;28;91124;-64
2022/06/03 16:36:45;;;;;;;5.00;1.15;;;21.80;90.40;;;;;;4917564;28;87124;-63
2022/06/03 16:39:17;;;;;;;8.45;1.15;;;21.70;90.90;;;;;;4917083;28;87001;-63
2022/06/03 16:41:54;;;;;;;2.38;0.70;;;21.80;91.10;;;;;;4916680;28;87009;-61
2022/06/03 16:44:43;;;;;;;6.95;1.00;;;21.70;90.80;;;;;;4911871;28;87440;-64
2022/06/03 16:47:34;;;;;;;4.03;0.73;;;21.70;91.00;;;;;;4916645;28;87022;-59
2022/06/03 16:50:11;;;;;;;6.85;1.05;;;21.30;92.50;;;;;;4911383;28;86277;-64
2022/06/03 16:52:47;;;;;;;2.08;0.60;;;20.90;95.00;;;;;;4913605;28;87597;-64
2022/06/03 16:55:28;;;;;;;2.20;0.90;;;20.70;96.60;;;;;;4912880;28;87137;-65
2022/06/03 16:58:17;;;;;;;3.00;0.80;;;20.80;98.10;;;;;;4917819;28;87949;-65
2022/06/03 17:00:53;;;;;;;3.60;0.82;;;20.50;99.90;;;;;;4916756;28;87647;-63
2022/06/03 17:03:40;;;;;;;3.78;0.80;;;20.30;99.90;;;;;;4920294;28;87878;-64